HTZAHTKJ

Guest
Details From HTZA - ZANZIBAR
To HTKJ - KILIMANJARO INTL
Flight Number -
Tags generated
Created
Modified
Stats Distance 222 nm / 411 km
Max Altitude 28,600 ft / 8,717 m
Waypoints 4
Social Downloads 5
Likes 0
Share

Download

Looking for another format? Having issues loading an existing format? Contact us
Advertisement - Login to hide

Notes

Basic altitude profile: - Ascent Rate: 2500ft/min - Ascent Speed: 250kts - Cruise Altitude: 35000ft - Cruise Speed: 420kts - Descent Rate: 1500ft/min - Descent Speed: 250kts Options: - Use NATs: yes - Use PACOTS: yes - Use low airways: yes - Use high airways: yes

Route

HTZA GEREN UB533 LUDOL HTKJ

ID Type Via Altitude (ft/m) Position (lat/lon) Dist (leg/tot) Name
O HTZA APT - 0 / 0 -6.22202 / 39.22488 - / 0 nm ZANZIBAR
GEREN FIX - 28,600 / 8,717 -5.06480 / 38.46110 83 / 83 nm
LUDOL FIX UB533 (AWY-HI) 24,500 / 7,468 -3.81602 / 37.96136 80 / 163 nm
O HTKJ APT - 0 / 0 -3.42946 / 37.07450 58 / 221 nm KILIMANJARO INTL

Altitude Profile

Advertisement - Login to hide

Weather


0- 5 10 15 20 25 30 35+ Temperature / °C

Clouds and Precipitation
Forecast for 2021-03-22 12:00 UTC. Updated 2 months ago

Ground ~20,000 ft ~40,000 ft Winds

HTZA

Details ICAO HTZA (ZNZ)
Name Abeid Amani Karume Intl
Region Tanzania
Timezone Africa/Dar_es_Salaam (UTC+3.0)
Stats Elevation 54 ft / 16 m (AMSL)
Location -6.224530° 39.225100°
Runways 1
Magnetic Variation 1.786° W

METAR

HTZA 102000Z 15010KT 9999 FEW014 26/23 Q1015 NOSIG

Decode

TAF

HTZA 101700Z 1018/1118 16010KT 9999 FEW016 BECMG 1103/1105 SCT014

Decode

Departure Runways

ID Width Length Bearing (true/mag) Surface Threshold Overrun Markings Lighting
18 148 ft / 45 m 9,977 ft / 3,041 m 174.31° / 176.10° ASPHALT 0 ft / 0 m 197 ft / 60 m PREC-APP EDGE THRESHOLD SALS REIL-OMNI
36 148 ft / 45 m 9,977 ft / 3,041 m 354.31° / 356.10° ASPHALT 0 ft / 0 m 197 ft / 60 m PREC-APP EDGE THRESHOLD SALS REIL-OMNI

HTKJ

Details ICAO HTKJ (JRO)
Name Kilimanjaro International Airport
Region Tanzania
Timezone Africa/Dar_es_Salaam (UTC+3.0)
Stats Elevation 2,932 ft / 894 m (AMSL)
Location -3.429410° 37.074400°
Runways 1
Magnetic Variation 0.033° W

METAR

HTKJ 102000Z 15006KT 9999 BKN024 22/18 Q1020 NOSIG

Decode

TAF

TAF HTKJ 101700Z 1018/1118 09005KT 9999 BKN024

Decode

Destination Runways

ID Width Length Bearing (true/mag) Surface Threshold Overrun Markings Lighting
09 148 ft / 45 m 11,792 ft / 3,594 m 87.51° / 87.54° ASPHALT 0 ft / 0 m 0 ft / 0 m PREC-APP CENTERLINE EDGE THRESHOLD ALSF-I REIL-OMNI
27 148 ft / 45 m 11,792 ft / 3,594 m 267.51° / 267.54° ASPHALT 0 ft / 0 m 0 ft / 0 m PREC-APP CENTERLINE EDGE THRESHOLD CALVERT REIL-OMNI

Approach Navaids

Runway Type Ident Frequency Range Bearing (true/mag) Slope Elevation
09 GS KK 110.90 MHz 10 nm / 19 km 88.03° / 88.06 ° 3.00° 2,932 ft / 894 m (AMSL)
09 LOC-ILS KK 110.90 MHz 18 nm / 33 km 87.43° / 87.47 ° - 2,932 ft / 894 m (AMSL)

Popular Alternatives